Time;durP1;ratioP1;P1;durP2;ratioP2;P2;SDS_P1;SDS_P2;PMS_P1;PMS_P2;Temp;Humidity;BMP_temperature;BMP_pressure;BME280_temperature;BME280_humidity;BME280_pressure;Samples;Min_cycle;Max_cycle;Signal;HPM_P1;HPM_P2
2024/02/10 00:01:19;;;;;;;;;32.75;21.75;;;;;2.67;100.00;98525.42;112939;240;39544;-54
2024/02/10 00:03:57;;;;;;;;;27.67;18.33;;;;;2.66;100.00;98523.31;112742;238;162783;-54
2024/02/10 00:06:37;;;;;;;;;26.00;19.00;;;;;2.70;100.00;98524.59;113169;240;40720;-54
2024/02/10 00:09:19;;;;;;;;;25.00;18.00;;;;;2.73;100.00;98523.73;113034;239;161468;-54
2024/02/10 00:11:58;;;;;;;;;30.00;21.00;;;;;2.74;100.00;98523.34;113008;240;40494;-53
2024/02/10 00:14:37;;;;;;;;;29.00;20.00;;;;;2.75;100.00;98519.91;112720;239;161635;-52
2024/02/10 00:17:19;;;;;;;;;25.25;17.00;;;;;2.77;100.00;98513.95;112858;240;39251;-53
2024/02/10 00:20:00;;;;;;;;;29.67;20.33;;;;;2.79;100.00;98512.66;112946;240;39732;-52
2024/02/10 00:22:39;;;;;;;;;46.75;28.00;;;;;2.75;100.00;98511.01;112742;239;161614;-53
2024/02/10 00:25:21;;;;;;;;;26.00;18.00;;;;;2.78;100.00;98510.06;112838;240;40098;-53
2024/02/10 00:28:02;;;;;;;;;29.67;22.00;;;;;2.78;100.00;98502.60;112758;238;161452;-56
2024/02/10 00:30:46;;;;;;;;;30.00;22.00;;;;;2.81;100.00;98498.69;113131;240;40590;-57
2024/02/10 00:33:26;;;;;;;;;23.00;16.00;;;;;2.78;100.00;98501.23;112962;239;161560;-53
2024/02/10 00:36:18;;;;;;;;;28.00;20.75;;;;;2.79;100.00;98500.73;112817;240;40924;-53
2024/02/10 00:38:55;;;;;;;;;28.00;22.00;;;;;2.83;100.00;98499.70;112697;239;162886;-56
2024/02/10 00:41:36;;;;;;;;;32.50;24.00;;;;;2.83;100.00;98494.58;112800;240;42473;-56
2024/02/10 00:44:14;;;;;;;;;26.00;18.00;;;;;2.81;100.00;98494.80;112852;240;39349;-56
2024/02/10 00:46:55;;;;;;;;;28.00;19.00;;;;;2.77;100.00;98494.05;112819;240;41427;-52
2024/02/10 00:49:33;;;;;;;;;16.75;13.00;;;;;2.76;100.00;98496.67;112881;240;40740;-52
2024/02/10 00:52:18;;;;;;;;;17.25;12.50;;;;;2.66;100.00;98492.20;112722;239;161627;-55
2024/02/10 00:54:55;;;;;;;;;36.00;22.75;;;;;2.67;100.00;98496.39;112902;240;40737;-55
2024/02/10 00:57:34;;;;;;;;;20.00;13.00;;;;;2.64;100.00;98493.71;112776;239;161472;-52
2024/02/10 01:00:16;;;;;;;;;26.33;21.00;;;;;2.56;100.00;98497.21;112914;240;39702;-52
2024/02/10 01:02:57;;;;;;;;;18.00;14.00;;;;;2.57;100.00;98484.91;112776;240;162320;-56
2024/02/10 01:05:41;;;;;;;;;14.50;9.50;;;;;2.61;100.00;98483.34;112895;240;39794;-56
2024/02/10 01:08:21;;;;;;;;;23.75;15.00;;;;;2.62;100.00;98484.17;112942;240;39571;-52
2024/02/10 01:11:04;;;;;;;;;22.00;17.00;;;;;2.63;100.00;98478.90;112770;240;41318;-52
2024/02/10 01:13:45;;;;;;;;;21.00;14.00;;;;;2.63;100.00;98480.17;112889;240;39700;-53
2024/02/10 01:16:25;;;;;;;;;19.67;13.00;;;;;2.62;100.00;98477.95;112687;240;161516;-52
2024/02/10 01:19:07;;;;;;;;;23.00;14.00;;;;;2.60;100.00;98480.87;112817;240;41244;-52
2024/02/10 01:21:54;;;;;;;;;22.00;16.50;;;;;2.58;100.00;98475.73;112726;239;161261;-55
2024/02/10 01:24:37;;;;;;;;;18.00;13.00;;;;;2.60;100.00;98497.27;112832;240;39827;-55
2024/02/10 01:27:12;;;;;;;;;14.50;10.00;;;;;2.61;100.00;98499.34;112777;239;161269;-55
2024/02/10 01:29:50;;;;;;;;;17.75;13.75;;;;;2.64;100.00;98482.48;112956;240;39893;-56
2024/02/10 01:32:24;;;;;;;;;22.00;15.00;;;;;2.69;100.00;98480.26;112817;240;161442;-51
2024/02/10 01:35:06;;;;;;;;;17.00;11.00;;;;;2.69;100.00;98469.46;112918;240;39586;-51
2024/02/10 01:37:42;;;;;;;;;19.33;14.00;;;;;2.67;100.00;98466.33;113206;240;39364;-52
2024/02/10 01:40:17;;;;;;;;;18.50;13.50;;;;;2.68;100.00;98461.04;112948;239;161051;-52
2024/02/10 01:42:51;;;;;;;;;14.50;9.50;;;;;2.67;100.00;98452.42;112972;240;39729;-55
2024/02/10 01:45:29;;;;;;;;;20.00;13.50;;;;;2.65;100.00;98454.52;112790;239;161153;-56
2024/02/10 01:48:09;;;;;;;;;16.50;12.25;;;;;2.63;100.00;98457.05;112922;240;40133;-52
2024/02/10 01:50:49;;;;;;;;;14.25;8.75;;;;;2.61;100.00;98457.44;112733;239;161636;-52
2024/02/10 01:53:32;;;;;;;;;15.25;11.00;;;;;2.61;100.00;98452.30;112916;240;40948;-54
2024/02/10 01:56:16;;;;;;;;;22.33;14.33;;;;;2.60;100.00;98458.36;112885;240;40551;-54
2024/02/10 01:58:56;;;;;;;;;14.50;11.00;;;;;2.53;100.00;98456.67;112757;239;161132;-55
2024/02/10 02:01:48;;;;;;;;;19.00;13.00;;;;;2.57;100.00;98458.72;113190;240;39786;-54
2024/02/10 02:04:27;;;;;;;;;20.67;13.00;;;;;2.54;100.00;98460.83;112758;239;162731;-55
2024/02/10 02:07:09;;;;;;;;;20.00;13.50;;;;;2.49;100.00;98464.09;112857;240;40204;-53
2024/02/10 02:09:46;;;;;;;;;23.00;14.00;;;;;2.55;100.00;98472.91;112669;239;161261;-54
2024/02/10 02:12:22;;;;;;;;;20.50;15.00;;;;;2.60;100.00;98474.32;112826;240;40017;-54
2024/02/10 02:15:05;;;;;;;;;20.25;15.50;;;;;2.60;100.00;98478.51;112682;239;161419;-55
2024/02/10 02:17:48;;;;;;;;;27.67;19.67;;;;;2.62;100.00;98475.52;112885;240;40653;-55
2024/02/10 02:20:22;;;;;;;;;25.00;17.00;;;;;2.65;100.00;98476.02;112831;240;40134;-55
2024/02/10 02:23:03;;;;;;;;;21.25;16.00;;;;;2.72;100.00;98475.70;112916;240;40298;-54
2024/02/10 02:25:40;;;;;;;;;23.50;16.00;;;;;2.75;100.00;98471.70;112842;240;40061;-54
2024/02/10 02:28:17;;;;;;;;;23.75;15.75;;;;;2.71;100.00;98469.33;112674;239;161482;-54
2024/02/10 02:30:54;;;;;;;;;21.00;14.67;;;;;2.72;100.00;98466.55;112873;240;41279;-53
2024/02/10 02:33:32;;;;;;;;;21.25;15.25;;;;;2.74;100.00;98465.92;112962;238;161030;-51
2024/02/10 02:36:11;;;;;;;;;22.25;15.00;;;;;2.74;100.00;98466.34;113061;240;41422;-51
2024/02/10 02:38:52;;;;;;;;;28.00;20.00;;;;;2.72;100.00;98467.16;113064;238;162575;-56
2024/02/10 02:41:35;;;;;;;;;24.00;15.00;;;;;2.68;100.00;98469.37;113003;240;40987;-52
2024/02/10 02:44:15;;;;;;;;;24.67;16.67;;;;;2.75;100.00;98470.11;113144;240;40177;-52
2024/02/10 02:46:54;;;;;;;;;25.00;17.00;;;;;2.77;100.00;98470.97;112746;238;161132;-51
2024/02/10 02:49:28;;;;;;;;;23.00;16.25;;;;;2.82;100.00;98473.14;113192;240;40761;-51
2024/02/10 02:52:07;;;;;;;;;30.00;19.25;;;;;2.86;100.00;98477.09;113034;238;162280;-55
2024/02/10 02:54:43;;;;;;;;;25.50;18.00;;;;;2.83;100.00;98480.16;113258;239;40108;-56
2024/02/10 02:57:24;;;;;;;;;28.25;20.50;;;;;2.82;100.00;98480.25;112989;239;161517;-56
2024/02/10 03:00:04;;;;;;;;;32.67;23.00;;;;;2.83;100.00;98480.49;113003;240;39917;-56
2024/02/10 03:02:48;;;;;;;;;31.33;18.00;;;;;2.87;100.00;98478.94;113048;238;161817;-52
2024/02/10 03:05:28;;;;;;;;;17.33;12.33;;;;;2.91;100.00;98479.66;113126;239;41572;-52
2024/02/10 03:08:08;;;;;;;;;27.00;19.50;;;;;2.95;100.00;98478.67;113239;239;40983;-54
2024/02/10 03:10:48;;;;;;;;;26.00;20.00;;;;;2.93;100.00;98476.63;112791;238;161577;-54
2024/02/10 03:13:24;;;;;;;;;28.00;17.25;;;;;2.95;100.00;98471.51;113194;240;39622;-54
2024/02/10 03:16:08;;;;;;;;;27.75;21.00;;;;;2.99;100.00;98472.64;112821;238;161893;-56
2024/02/10 03:18:51;;;;;;;;;31.00;22.00;;;;;2.98;100.00;98473.95;113123;240;40258;-54
2024/02/10 03:21:37;;;;;;;;;29.00;19.50;;;;;3.02;100.00;98476.16;112929;238;161588;-54
2024/02/10 03:24:19;;;;;;;;;29.00;20.50;;;;;3.08;100.00;98478.73;113098;240;39817;-55
2024/02/10 03:27:00;;;;;;;;;26.50;17.25;;;;;3.13;100.00;98484.48;113034;240;162381;-54
2024/02/10 03:29:45;;;;;;;;;30.50;20.50;;;;;3.14;100.00;98490.41;112907;240;39049;-54
2024/02/10 03:32:19;;;;;;;;;32.75;21.75;;;;;3.17;100.00;98493.81;113117;239;39599;-53
2024/02/10 03:34:56;;;;;;;;;30.50;20.00;;;;;3.12;100.00;98499.01;112713;238;161525;-52
2024/02/10 03:37:35;;;;;;;;;26.75;20.25;;;;;3.15;100.00;98499.38;112845;240;40984;-52
2024/02/10 03:40:18;;;;;;;;;33.50;21.50;;;;;3.13;100.00;98496.23;112728;241;161044;-51
2024/02/10 03:42:55;;;;;;;;;31.67;21.67;;;;;3.13;100.00;98496.19;113202;239;39046;-54
2024/02/10 03:45:37;;;;;;;;;31.00;21.75;;;;;3.12;100.00;98496.13;112985;239;161656;-54
2024/02/10 03:48:14;;;;;;;;;33.00;23.00;;;;;3.14;100.00;98492.88;113060;240;40797;-51
2024/02/10 03:50:56;;;;;;;;;23.67;18.00;;;;;3.19;100.00;98494.94;113000;238;161776;-51
2024/02/10 03:53:34;;;;;;;;;34.00;23.00;;;;;3.21;100.00;98496.31;112997;240;39555;-55
2024/02/10 03:56:11;;;;;;;;;34.75;24.75;;;;;3.23;100.00;98498.27;112842;240;40292;-55
2024/02/10 03:58:48;;;;;;;;;26.33;18.33;;;;;3.17;100.00;98493.60;112988;238;161880;-52
2024/02/10 04:01:34;;;;;;;;;29.00;19.75;;;;;3.12;100.00;98494.21;113183;239;39654;-51
2024/02/10 04:04:15;;;;;;;;;24.00;16.00;;;;;3.12;100.00;98489.17;112840;238;161268;-51
2024/02/10 04:07:00;;;;;;;;;25.00;18.25;;;;;3.13;100.00;98483.88;113181;240;40372;-54
2024/02/10 04:09:39;;;;;;;;;23.00;17.00;;;;;3.14;100.00;98488.40;112895;240;161825;-54
2024/02/10 04:12:19;;;;;;;;;28.75;19.50;;;;;3.18;100.00;98489.15;112328;240;679930;-52
2024/02/10 04:15:15;;;;;;;;;41.00;29.00;;;;;3.22;100.00;98488.56;113029;238;161903;-52
2024/02/10 04:18:18;;;;;;;;;34.00;25.00;;;;;3.22;100.00;98488.48;113128;240;39977;-54
2024/02/10 04:21:01;;;;;;;;;30.00;21.00;;;;;3.23;100.00;98484.44;112954;240;161623;-52
2024/02/10 04:23:47;;;;;;;;;29.00;21.00;;;;;3.26;100.00;98489.64;112939;240;40562;-55
2024/02/10 04:26:33;;;;;;;;;26.00;18.00;;;;;3.28;100.00;98494.67;113174;240;39862;-51
2024/02/10 04:29:16;;;;;;;;;26.00;17.00;;;;;3.26;100.00;98500.57;112887;240;39833;-51
2024/02/10 04:31:58;;;;;;;;;27.00;18.75;;;;;3.28;100.00;98499.97;113227;240;40610;-51
2024/02/10 04:34:45;;;;;;;;;23.00;17.00;;;;;3.30;100.00;98496.41;112945;239;161537;-51
2024/02/10 04:37:24;;;;;;;;;35.50;25.00;;;;;3.32;100.00;98494.02;113161;239;40273;-51
2024/02/10 04:40:03;;;;;;;;;33.33;24.00;;;;;3.34;100.00;98495.02;112781;238;161972;-51
2024/02/10 04:42:40;;;;;;;;;36.00;23.67;;;;;3.37;100.00;98499.52;112876;240;39020;-52
2024/02/10 04:45:27;;;;;;;;;29.00;22.33;;;;;3.34;100.00;98504.61;112894;239;161667;-52
2024/02/10 04:48:07;;;;;;;;;38.00;26.00;;;;;3.37;100.00;98495.16;112922;240;39172;-51
2024/02/10 04:50:46;;;;;;;;;37.50;26.00;;;;;3.40;100.00;98495.61;113024;238;164111;-51
2024/02/10 04:53:25;;;;;;;;;38.00;25.00;;;;;3.41;100.00;98491.27;113047;240;39619;-52
2024/02/10 04:56:02;;;;;;;;;37.00;25.00;;;;;3.44;100.00;98492.11;113137;240;39690;-53
2024/02/10 04:58:36;;;;;;;;;42.50;28.00;;;;;3.46;100.00;98488.13;112788;239;161773;-53
2024/02/10 05:01:21;;;;;;;;;32.50;22.00;;;;;3.43;100.00;98485.45;113160;240;40058;-51
2024/02/10 05:03:58;;;;;;;;;34.00;23.00;;;;;3.32;100.00;98482.53;112819;239;161751;-55
2024/02/10 05:06:42;;;;;;;;;34.00;23.00;;;;;3.37;100.00;98489.50;113068;240;40446;-55
2024/02/10 05:09:21;;;;;;;;;25.00;18.00;;;;;3.38;100.00;98487.14;112968;238;161852;-54
2024/02/10 05:12:00;;;;;;;;;35.00;23.67;;;;;3.40;100.00;98488.15;113156;240;39110;-52
2024/02/10 05:14:43;;;;;;;;;34.25;25.00;;;;;3.38;100.00;98481.71;113138;240;41199;-52
2024/02/10 05:17:20;;;;;;;;;30.00;21.00;;;;;3.36;100.00;98482.80;112898;240;40845;-52
2024/02/10 05:20:04;;;;;;;;;25.50;18.50;;;;;3.35;100.00;98481.66;113157;240;41137;-52
2024/02/10 05:22:44;;;;;;;;;28.75;21.50;;;;;3.32;100.00;98485.42;112765;238;161837;-55
2024/02/10 05:25:35;;;;;;;;;32.33;22.67;;;;;3.31;100.00;98488.09;113167;240;41250;-55
2024/02/10 05:28:10;;;;;;;;;26.00;20.00;;;;;3.34;100.00;98489.98;112833;238;162042;-51
2024/02/10 05:30:45;;;;;;;;;31.00;20.75;;;;;3.34;100.00;98488.28;113135;240;41403;-51
2024/02/10 05:33:28;;;;;;;;;32.00;23.00;;;;;3.37;100.00;98486.30;112992;238;162690;-52
2024/02/10 05:36:10;;;;;;;;;35.00;23.00;;;;;3.37;100.00;98483.06;113108;240;40540;-52
2024/02/10 05:38:51;;;;;;;;;37.00;25.00;;;;;3.31;100.00;98477.54;113025;238;161481;-56
2024/02/10 05:41:34;;;;;;;;;30.00;22.00;;;;;3.28;100.00;98482.03;112944;240;39713;-52
2024/02/10 05:44:12;;;;;;;;;28.75;21.50;;;;;3.29;100.00;98480.64;113149;240;41519;-51
2024/02/10 05:46:54;;;;;;;;;34.00;22.75;;;;;3.25;100.00;98479.73;112769;238;162821;-51
2024/02/10 05:49:36;;;;;;;;;32.25;22.25;;;;;3.25;100.00;98474.23;113150;240;39196;-51
2024/02/10 05:52:15;;;;;;;;;28.50;19.00;;;;;3.31;100.00;98472.41;112862;238;161559;-52
2024/02/10 05:54:56;;;;;;;;;26.00;17.00;;;;;3.29;100.00;98469.68;113167;240;40804;-52
2024/02/10 05:57:36;;;;;;;;;32.75;24.00;;;;;3.27;100.00;98468.44;112941;238;161322;-52
2024/02/10 06:00:15;;;;;;;;;36.67;23.67;;;;;3.31;100.00;98464.80;113002;240;39541;-52
2024/02/10 06:02:55;;;;;;;;;40.00;28.00;;;;;3.24;100.00;98466.39;113033;239;161776;-52
2024/02/10 06:05:32;;;;;;;;;35.00;24.75;;;;;3.21;100.00;98464.41;112908;240;39623;-52
2024/02/10 06:08:12;;;;;;;;;30.00;21.00;;;;;3.20;100.00;98461.05;113207;240;39857;-54
2024/02/10 06:10:50;;;;;;;;;31.33;21.00;;;;;3.20;100.00;98459.08;112733;238;161273;-54
2024/02/10 06:13:28;;;;;;;;;35.25;24.50;;;;;3.20;100.00;98454.11;113170;240;41458;-55
2024/02/10 06:16:10;;;;;;;;;33.00;23.33;;;;;3.22;100.00;98457.24;113019;238;162520;-56
2024/02/10 06:18:49;;;;;;;;;35.00;24.00;;;;;3.20;100.00;98458.21;113192;239;39979;-54
2024/02/10 06:21:23;;;;;;;;;31.00;22.75;;;;;3.21;100.00;98459.75;113044;238;161896;-52
2024/02/10 06:24:04;;;;;;;;;21.00;14.25;;;;;3.15;100.00;98453.95;112939;240;41272;-52
2024/02/10 06:26:46;;;;;;;;;30.25;20.00;;;;;3.16;100.00;98460.80;113162;240;39981;-54
2024/02/10 06:29:29;;;;;;;;;34.00;24.00;;;;;3.14;100.00;98462.63;112887;240;40179;-54
2024/02/10 06:32:08;;;;;;;;;26.00;18.75;;;;;3.15;100.00;98461.16;113188;240;39633;-55
2024/02/10 06:34:44;;;;;;;;;29.00;21.00;;;;;3.14;100.00;98459.51;112995;238;161425;-56
2024/02/10 06:37:20;;;;;;;;;38.00;27.00;;;;;3.14;100.00;98457.13;113282;239;39720;-54
2024/02/10 06:40:03;;;;;;;;;16.25;12.50;;;;;3.20;100.00;98460.23;113066;238;161451;-55
2024/02/10 06:42:46;;;;;;;;;31.00;23.00;;;;;3.22;100.00;98459.46;113283;239;39117;-55
2024/02/10 06:45:28;;;;;;;;;26.75;18.00;;;;;3.27;100.00;98460.30;113117;238;162778;-56
2024/02/10 06:48:07;;;;;;;;;26.00;17.25;;;;;3.28;100.00;98463.77;113154;240;40486;-51
2024/02/10 06:50:54;;;;;;;;;26.00;18.00;;;;;3.34;100.00;98467.71;113020;240;161436;-51
2024/02/10 06:53:37;;;;;;;;;27.00;18.67;;;;;3.38;100.00;98471.73;112913;240;40168;-54
2024/02/10 06:56:18;;;;;;;;;23.00;17.25;;;;;3.43;100.00;98473.95;113167;240;40072;-53
2024/02/10 06:58:52;;;;;;;;;28.00;18.00;;;;;3.43;100.00;98483.90;112721;238;161366;-54
2024/02/10 07:01:25;;;;;;;;;24.75;16.50;;;;;3.45;100.00;98483.80;113181;240;41624;-54
2024/02/10 07:04:05;;;;;;;;;26.00;18.00;;;;;3.46;100.00;98491.09;112869;238;161666;-55
2024/02/10 07:06:53;;;;;;;;;31.50;21.00;;;;;3.46;100.00;98494.94;113132;240;40641;-51
2024/02/10 07:09:37;;;;;;;;;24.50;17.25;;;;;3.54;100.00;98497.27;112947;238;161156;-51
2024/02/10 07:12:11;;;;;;;;;22.00;16.33;;;;;3.57;100.00;98495.65;113023;240;40355;-52
2024/02/10 07:14:52;;;;;;;;;35.00;22.00;;;;;3.60;100.00;98495.93;113062;238;161379;-52
2024/02/10 07:17:36;;;;;;;;;28.00;19.00;;;;;3.66;100.00;98493.80;113167;240;41431;-55
2024/02/10 07:20:18;;;;;;;;;34.00;24.67;;;;;3.69;100.00;98492.18;113132;240;39453;-55
2024/02/10 07:23:03;;;;;;;;;22.50;15.50;;;;;3.74;100.00;98486.16;112708;238;162522;-56
2024/02/10 07:25:44;;;;;;;;;31.00;21.50;;;;;3.69;100.00;98490.02;113145;240;40324;-54
2024/02/10 07:28:23;;;;;;;;;36.33;23.00;;;;;3.72;100.00;98492.14;112831;238;161306;-51
2024/02/10 07:31:03;;;;;;;;;28.00;18.00;;;;;3.76;100.00;98495.41;113133;240;39724;-51
2024/02/10 07:33:40;;;;;;;;;29.50;21.00;;;;;3.81;100.00;98497.68;112866;238;161270;-54
2024/02/10 07:36:20;;;;;;;;;22.00;18.00;;;;;3.87;100.00;98504.30;113012;240;39459;-54
2024/02/10 07:38:59;;;;;;;;;22.00;16.00;;;;;3.87;100.00;98506.40;113007;240;161601;-54
2024/02/10 07:41:39;;;;;;;;;26.00;18.00;;;;;3.96;100.00;98512.59;112918;240;41215;-55
2024/02/10 07:44:21;;;;;;;;;26.00;19.00;;;;;4.02;100.00;98508.94;113177;240;40921;-55
2024/02/10 07:46:59;;;;;;;;;34.00;25.00;;;;;4.06;100.00;98508.96;112758;238;161682;-52
2024/02/10 07:49:34;;;;;;;;;28.00;20.00;;;;;4.13;100.00;98516.42;113177;240;40739;-52
2024/02/10 07:52:12;;;;;;;;;29.33;19.00;;;;;4.15;100.00;98512.48;112908;238;162385;-54
2024/02/10 07:54:50;;;;;;;;;40.00;27.00;;;;;4.21;100.00;98512.94;113093;240;39790;-54
2024/02/10 07:57:34;;;;;;;;;30.00;20.00;;;;;4.22;100.00;98516.08;113045;238;161747;-52
2024/02/10 08:00:11;;;;;;;;;29.00;19.75;;;;;4.29;100.00;98519.23;113119;240;39932;-52
2024/02/10 08:02:52;;;;;;;;;29.25;19.00;;;;;4.34;100.00;98518.01;113028;238;162262;-52
2024/02/10 08:05:37;;;;;;;;;26.50;20.00;;;;;4.37;100.00;98518.48;112883;240;40351;-51
2024/02/10 08:08:12;;;;;;;;;31.00;20.00;;;;;4.48;100.00;98525.70;113151;240;40537;-54
2024/02/10 08:10:47;;;;;;;;;31.75;21.75;;;;;4.52;100.00;98525.81;112731;238;162812;-54
2024/02/10 08:13:25;;;;;;;;;32.00;20.00;;;;;4.58;100.00;98527.04;113195;240;39595;-52
2024/02/10 08:16:02;;;;;;;;;32.75;24.00;;;;;4.56;100.00;98526.90;112825;240;161484;-52
2024/02/10 08:18:41;;;;;;;;;26.00;21.00;;;;;4.56;100.00;98522.34;113111;240;39269;-56
2024/02/10 08:21:26;;;;;;;;;25.25;17.25;;;;;4.61;100.00;98513.81;112976;238;162315;-53
2024/02/10 08:24:01;;;;;;;;;22.00;17.25;;;;;4.71;100.00;98505.30;113003;240;39056;-54
2024/02/10 08:26:41;;;;;;;;;27.75;20.00;;;;;4.78;100.00;98502.35;113176;240;39262;-55
2024/02/10 08:29:19;;;;;;;;;27.50;21.00;;;;;4.86;100.00;98506.83;112885;239;39217;-56
2024/02/10 08:31:58;;;;;;;;;27.50;21.00;;;;;4.93;100.00;98511.38;113241;239;39679;-52
2024/02/10 08:34:39;;;;;;;;;28.00;20.00;;;;;5.03;100.00;98510.66;112969;240;160763;-54
2024/02/10 08:37:16;;;;;;;;;26.00;20.00;;;;;5.02;100.00;98507.20;112918;240;40372;-54
2024/02/10 08:39:57;;;;;;;;;27.50;18.75;;;;;4.97;100.00;98503.08;112752;239;160780;-56
2024/02/10 08:42:42;;;;;;;;;29.00;21.50;;;;;4.98;100.00;98498.30;113091;240;39547;-55
2024/02/10 08:45:20;;;;;;;;;28.50;21.00;;;;;5.03;100.00;98497.05;113002;238;161650;-53
2024/02/10 08:47:57;;;;;;;;;27.25;19.25;;;;;5.08;100.00;98494.96;112970;240;39722;-55
2024/02/10 08:50:41;;;;;;;;;28.50;20.00;;;;;5.14;100.00;98497.74;113146;240;39877;-52
2024/02/10 08:53:19;;;;;;;;;40.75;27.75;;;;;5.19;100.00;98494.92;112841;240;41091;-51
2024/02/10 08:55:56;;;;;;;;;30.00;23.00;;;;;5.22;100.00;98495.34;113161;240;39675;-55
2024/02/10 08:58:32;;;;;;;;;31.50;22.00;;;;;5.34;100.00;98493.43;112838;239;161715;-55
2024/02/10 09:01:15;;;;;;;;;33.75;24.25;;;;;5.41;100.00;98497.94;113170;240;40552;-52
2024/02/10 09:03:56;;;;;;;;;35.00;23.00;;;;;5.34;100.00;98502.64;112925;238;161054;-52
2024/02/10 09:06:37;;;;;;;;;31.00;22.00;;;;;5.38;100.00;98502.96;113069;240;39032;-55
2024/02/10 09:09:20;;;;;;;;;29.67;21.00;;;;;5.41;100.00;98505.92;113014;238;162050;-55
2024/02/10 09:11:59;;;;;;;;;26.00;20.00;;;;;5.30;100.00;98512.00;113010;240;38876;-54
2024/02/10 09:14:34;;;;;;;;;35.00;23.50;;;;;5.32;100.00;98517.18;113176;240;39938;-54
2024/02/10 09:17:09;;;;;;;;;32.00;21.00;;;;;5.38;100.00;98522.36;112824;238;161686;-50
2024/02/10 09:19:45;;;;;;;;;35.50;25.75;;;;;5.43;100.00;98524.96;113158;240;39789;-51
2024/02/10 09:22:25;;;;;;;;;35.33;24.00;;;;;5.49;100.00;98526.13;112839;238;161639;-56
2024/02/10 09:25:07;;;;;;;;;31.33;23.00;;;;;5.49;100.00;98533.01;113078;240;40835;-56
2024/02/10 09:27:43;;;;;;;;;42.33;29.33;;;;;5.49;100.00;98543.64;112943;238;161522;-55
2024/02/10 09:30:22;;;;;;;;;30.50;21.25;;;;;5.51;100.00;98548.17;112992;240;40530;-55
2024/02/10 09:33:02;;;;;;;;;41.00;27.50;;;;;5.60;100.00;98553.56;113116;238;161275;-56
2024/02/10 09:36:02;;;;;;;;;36.67;26.00;;;;;5.54;100.00;98553.17;112999;240;41232;-57
2024/02/10 09:38:42;;;;;;;;;28.25;20.00;;;;;5.42;100.00;98545.48;113163;240;39878;-56
2024/02/10 09:41:21;;;;;;;;;38.75;26.25;;;;;5.45;100.00;98549.44;112844;239;39102;-55
2024/02/10 09:43:59;;;;;;;;;36.00;23.50;;;;;5.53;100.00;98553.66;113062;240;38994;-54
2024/02/10 09:46:37;;;;;;;;;39.50;29.00;;;;;5.55;100.00;98555.33;112706;239;161300;-53
2024/02/10 09:49:13;;;;;;;;;34.50;23.75;;;;;5.60;100.00;98552.65;113096;240;40440;-51
2024/02/10 09:51:58;;;;;;;;;35.00;24.00;;;;;5.67;100.00;98554.56;112912;238;161666;-52
2024/02/10 09:54:42;;;;;;;;;31.00;21.33;;;;;5.76;100.00;98553.67;113028;240;39339;-52
2024/02/10 09:57:23;;;;;;;;;36.00;25.00;;;;;5.88;100.00;98553.60;113055;238;162009;-57
2024/02/10 10:00:05;;;;;;;;;32.67;23.00;;;;;5.99;100.00;98558.02;113155;240;39848;-57
2024/02/10 10:02:46;;;;;;;;;35.25;26.00;;;;;6.00;100.00;98558.92;113242;240;40285;-57
2024/02/10 10:05:22;;;;;;;;;41.00;30.00;;;;;6.16;100.00;98557.41;112883;240;40127;-56
2024/02/10 10:08:00;;;;;;;;;43.00;29.25;;;;;6.22;100.00;98558.91;113158;240;39051;-53
2024/02/10 10:10:45;;;;;;;;;41.75;28.50;;;;;6.27;100.00;98559.55;112840;238;161692;-53
2024/02/10 10:13:29;;;;;;;;;43.25;30.25;;;;;6.36;100.00;98562.47;113159;240;40880;-51
2024/02/10 10:16:12;;;;;;;;;35.25;26.00;;;;;6.43;100.00;98566.60;112847;238;161134;-54
2024/02/10 10:18:55;;;;;;;;;32.33;24.00;;;;;6.43;100.00;98561.36;113032;240;40904;-53
2024/02/10 10:21:36;;;;;;;;;40.00;28.00;;;;;6.42;100.00;98559.92;112997;238;161622;-55
2024/02/10 10:24:19;;;;;;;;;42.00;28.25;;;;;6.33;100.00;98554.55;112876;240;39182;-55
2024/02/10 10:27:02;;;;;;;;;38.50;27.00;;;;;6.28;100.00;98558.90;113204;240;40346;-55
2024/02/10 10:29:39;;;;;;;;;38.00;27.00;;;;;6.33;100.00;98561.33;113131;240;40273;-53
2024/02/10 10:32:18;;;;;;;;;44.00;31.00;;;;;6.34;100.00;98565.04;112912;240;41058;-53
2024/02/10 10:35:01;;;;;;;;;38.75;28.00;;;;;6.40;100.00;98566.84;112693;238;161648;-53
2024/02/10 10:37:39;;;;;;;;;43.00;26.67;;;;;6.46;99.69;98572.25;113225;240;39800;-57
2024/02/10 10:40:17;;;;;;;;;34.00;25.00;;;;;6.37;99.75;98565.94;112871;238;161442;-57
2024/02/10 10:42:55;;;;;;;;;40.50;27.50;;;;;6.39;99.66;98565.48;113128;240;41130;-56
2024/02/10 10:45:39;;;;;;;;;43.67;30.33;;;;;6.48;99.45;98569.45;112989;238;161604;-53
2024/02/10 10:48:18;;;;;;;;;39.00;28.25;;;;;6.48;99.49;98573.69;112993;240;39798;-53
2024/02/10 10:51:00;;;;;;;;;42.75;30.00;;;;;6.37;99.54;98572.75;113163;240;39631;-54
2024/02/10 10:53:36;;;;;;;;;43.25;29.00;;;;;6.37;99.70;98569.79;112927;240;39375;-56
2024/02/10 10:56:24;;;;;;;;;37.00;27.00;;;;;6.37;99.44;98572.63;112890;240;42214;-57
2024/02/10 10:59:08;;;;;;;;;43.25;29.00;;;;;6.34;99.32;98570.52;112646;239;161326;-53
2024/02/10 11:01:48;;;;;;;;;42.50;30.50;;;;;6.29;99.44;98567.92;113221;240;40371;-53
2024/02/10 11:04:33;;;;;;;;;52.00;34.00;;;;;6.23;99.44;98568.92;112858;238;161659;-53
2024/02/10 11:07:18;;;;;;;;;48.00;30.67;;;;;6.21;99.33;98578.40;113093;240;40746;-53
2024/02/10 11:09:59;;;;;;;;;41.25;29.75;;;;;6.22;99.32;98580.02;112886;238;161421;-53
2024/02/10 11:12:45;;;;;;;;;53.75;37.50;;;;;6.27;99.23;98582.40;113041;240;39386;-53
2024/02/10 11:15:26;;;;;;;;;38.50;27.50;;;;;6.23;99.36;98583.52;112989;238;161691;-52
2024/02/10 11:18:14;;;;;;;;;41.00;29.00;;;;;6.21;99.33;98589.99;113142;240;39037;-55
2024/02/10 11:20:53;;;;;;;;;40.50;27.75;;;;;6.14;99.57;98593.62;113141;240;39446;-55
2024/02/10 11:23:37;;;;;;;;;41.25;27.00;;;;;6.15;99.64;98594.73;112858;238;41035;-54
2024/02/10 11:26:24;;;;;;;;;34.75;26.00;;;;;6.16;99.64;98595.31;113119;239;39393;-55
2024/02/10 11:29:10;;;;;;;;;40.75;29.00;;;;;6.15;99.65;98594.95;112761;238;162064;-51
2024/02/10 11:31:46;;;;;;;;;37.75;26.75;;;;;6.20;99.49;98596.71;112878;240;40868;-50
2024/02/10 11:34:25;;;;;;;;;42.00;26.50;;;;;6.18;99.67;98598.66;112882;238;161495;-51
2024/02/10 11:37:03;;;;;;;;;39.75;30.00;;;;;6.15;99.86;98597.80;113101;240;39861;-51
2024/02/10 11:39:47;;;;;;;;;45.50;30.00;;;;;6.15;99.92;98597.37;113063;238;161704;-52
2024/02/10 11:42:30;;;;;;;;;41.50;28.25;;;;;6.20;99.82;98594.61;113173;240;39251;-53
2024/02/10 11:45:09;;;;;;;;;43.00;31.00;;;;;6.25;99.86;98589.49;113003;238;161023;-53
2024/02/10 11:47:57;;;;;;;;;50.50;34.00;;;;;6.25;99.94;98592.30;112932;240;39864;-55
2024/02/10 11:50:32;;;;;;;;;37.50;28.00;;;;;6.28;100.00;98593.34;113105;240;40886;-55
2024/02/10 11:53:08;;;;;;;;;50.00;34.50;;;;;6.35;100.00;98591.48;112796;238;161858;-53
2024/02/10 11:55:54;;;;;;;;;43.75;29.00;;;;;6.39;100.00;98593.79;113134;240;41048;-54
2024/02/10 11:58:40;;;;;;;;;49.00;33.75;;;;;6.42;100.00;98591.98;112825;238;161836;-52
2024/02/10 12:01:18;;;;;;;;;47.25;30.75;;;;;6.50;100.00;98594.23;113108;240;39202;-54
2024/02/10 12:04:04;;;;;;;;;42.25;30.75;;;;;6.49;100.00;98595.44;112902;238;161814;-55
2024/02/10 12:06:44;;;;;;;;;39.00;27.00;;;;;6.51;100.00;98596.92;113032;240;39021;-52
2024/02/10 12:09:24;;;;;;;;;44.75;31.00;;;;;6.52;100.00;98590.77;112951;238;161783;-52
2024/02/10 12:12:13;;;;;;;;;45.25;32.25;;;;;6.57;100.00;98594.89;112345;241;674599;-55
2024/02/10 12:14:49;;;;;;;;;41.00;29.33;;;;;6.53;100.00;98591.09;113213;240;40484;-54